createdAt,value
2022-10-16T00:01:12.367Z,13.10
2022-10-16T00:03:40.597Z,13.10
2022-10-16T00:06:08.249Z,13.00
2022-10-16T00:08:35.763Z,13.00
2022-10-16T00:11:13.973Z,12.90
2022-10-16T00:13:42.598Z,12.90
2022-10-16T00:16:13.159Z,12.90
2022-10-16T00:18:40.990Z,12.80
2022-10-16T00:21:32.149Z,12.80
2022-10-16T00:24:01.644Z,12.80
2022-10-16T00:26:31.098Z,12.80
2022-10-16T00:28:57.918Z,12.70
2022-10-16T00:31:25.779Z,12.70
2022-10-16T00:33:52.513Z,12.70
2022-10-16T00:36:21.477Z,12.70
2022-10-16T00:38:50.983Z,12.60
2022-10-16T00:41:18.525Z,12.40
2022-10-16T00:43:57.368Z,12.40
2022-10-16T00:46:25.922Z,12.40
2022-10-16T00:49:10.827Z,12.40
2022-10-16T00:51:39.271Z,12.40
2022-10-16T00:54:16.364Z,12.40
2022-10-16T00:56:45.266Z,12.40
2022-10-16T00:59:17.179Z,12.40
2022-10-16T01:01:43.843Z,12.40
2022-10-16T01:04:10.516Z,12.40
2022-10-16T01:06:58.200Z,12.30
2022-10-16T01:09:39.823Z,12.30
2022-10-16T01:12:47.011Z,12.30
2022-10-16T01:15:30.522Z,12.30
2022-10-16T01:18:01.675Z,12.30
2022-10-16T01:20:35.100Z,12.30
2022-10-16T01:23:27.330Z,12.30
2022-10-16T01:26:31.975Z,12.40
2022-10-16T01:29:01.781Z,12.40
2022-10-16T01:31:33.640Z,12.40
2022-10-16T01:34:12.223Z,12.50
2022-10-16T01:36:44.929Z,12.50
2022-10-16T01:39:13.287Z,12.50
2022-10-16T01:41:46.855Z,12.50
2022-10-16T01:44:47.307Z,12.50
2022-10-16T01:47:14.941Z,12.40
2022-10-16T01:49:42.880Z,12.30
2022-10-16T01:52:14.665Z,12.30
2022-10-16T01:54:46.875Z,12.40
2022-10-16T01:57:16.148Z,12.40
2022-10-16T01:59:49.906Z,12.40
2022-10-16T02:02:19.437Z,12.30
2022-10-16T02:05:05.482Z,12.30
2022-10-16T02:07:32.231Z,12.30
2022-10-16T02:09:59.010Z,12.30
2022-10-16T02:12:40.456Z,12.20
2022-10-16T02:15:08.043Z,12.20
2022-10-16T02:17:34.771Z,12.10
2022-10-16T02:20:02.374Z,12.10
2022-10-16T02:22:31.197Z,12.10
2022-10-16T02:25:10.745Z,12.10
2022-10-16T02:27:53.268Z,12.10
2022-10-16T02:30:25.950Z,12.10
2022-10-16T02:32:54.651Z,12.10
2022-10-16T02:35:23.725Z,12.10
2022-10-16T02:37:51.833Z,12.00
2022-10-16T02:40:21.590Z,12.10
2022-10-16T02:42:53.201Z,12.00
2022-10-16T02:45:20.963Z,12.00
2022-10-16T02:47:48.066Z,12.00
2022-10-16T02:50:15.023Z,12.00
2022-10-16T02:52:42.097Z,12.00
2022-10-16T02:55:09.032Z,12.00
2022-10-16T02:57:37.724Z,12.00
2022-10-16T03:00:06.047Z,12.00
2022-10-16T03:02:32.729Z,12.00
2022-10-16T03:04:59.548Z,11.90
2022-10-16T03:07:26.961Z,12.00
2022-10-16T03:09:53.793Z,12.00
2022-10-16T03:12:20.421Z,12.00
2022-10-16T03:14:47.299Z,12.00
2022-10-16T03:17:14.192Z,12.00
2022-10-16T03:19:40.894Z,12.00
2022-10-16T03:22:07.705Z,12.00
2022-10-16T03:24:34.373Z,11.90
2022-10-16T03:27:01.339Z,11.90
2022-10-16T03:29:30.235Z,11.90
2022-10-16T03:32:00.338Z,11.90
2022-10-16T03:34:27.059Z,11.90
2022-10-16T03:36:53.820Z,11.90
2022-10-16T03:39:20.891Z,11.90
2022-10-16T03:41:47.559Z,11.90
2022-10-16T03:44:14.455Z,11.90
2022-10-16T03:46:41.239Z,11.90
2022-10-16T03:49:09.746Z,11.90
2022-10-16T03:51:37.002Z,11.90
2022-10-16T03:54:03.725Z,11.90
2022-10-16T03:56:30.395Z,11.90
2022-10-16T03:58:57.083Z,11.80
2022-10-16T04:01:23.777Z,11.80
2022-10-16T04:03:50.489Z,11.80
2022-10-16T04:06:17.143Z,11.80
2022-10-16T04:08:44.638Z,11.80
2022-10-16T04:11:11.529Z,11.90
2022-10-16T04:13:38.317Z,11.90
2022-10-16T04:16:05.221Z,11.90
2022-10-16T04:18:32.023Z,12.00
2022-10-16T04:21:06.907Z,12.00
2022-10-16T04:23:33.956Z,12.00
2022-10-16T04:26:00.986Z,11.90
2022-10-16T04:28:28.109Z,11.90
2022-10-16T04:30:54.809Z,11.90
2022-10-16T04:33:21.484Z,12.00
2022-10-16T04:35:48.172Z,12.00
2022-10-16T04:38:14.867Z,12.00
2022-10-16T04:40:43.666Z,12.00
2022-10-16T04:43:10.667Z,12.00
2022-10-16T04:45:37.330Z,12.10
2022-10-16T04:48:04.297Z,12.10
2022-10-16T04:50:30.964Z,12.20
2022-10-16T04:52:57.599Z,12.20
2022-10-16T04:55:24.460Z,12.20
2022-10-16T04:57:51.314Z,12.20
2022-10-16T05:00:18.618Z,12.30
2022-10-16T05:02:45.490Z,12.30
2022-10-16T05:05:12.705Z,12.30
2022-10-16T05:07:39.354Z,12.30
2022-10-16T05:10:06.454Z,12.30
2022-10-16T05:12:33.570Z,12.30
2022-10-16T05:15:00.251Z,12.30
2022-10-16T05:17:27.862Z,12.40
2022-10-16T05:19:55.057Z,12.40
2022-10-16T05:22:21.921Z,12.40
2022-10-16T05:24:48.750Z,12.40
2022-10-16T05:27:20.040Z,12.40
2022-10-16T05:29:47.938Z,12.40
2022-10-16T05:32:18.957Z,12.40
2022-10-16T05:34:46.288Z,12.40
2022-10-16T05:37:13.333Z,12.50
2022-10-16T05:39:40.458Z,12.50
2022-10-16T05:42:07.615Z,12.50
2022-10-16T05:47:01.009Z,12.50
2022-10-16T05:49:27.719Z,12.60
2022-10-16T05:51:54.376Z,12.60
2022-10-16T05:54:21.021Z,12.60
2022-10-16T05:56:47.724Z,12.60
2022-10-16T05:59:14.518Z,12.60
2022-10-16T06:01:41.323Z,12.60
2022-10-16T06:04:08.802Z,12.70
2022-10-16T06:06:37.228Z,12.70
2022-10-16T06:09:04.708Z,12.70
2022-10-16T06:11:33.457Z,12.70
2022-10-16T06:14:03.676Z,12.70
2022-10-16T06:16:30.831Z,12.70
2022-10-16T06:18:57.597Z,12.70
2022-10-16T06:21:26.165Z,12.70
2022-10-16T06:23:53.236Z,12.70
2022-10-16T06:26:22.249Z,12.60
2022-10-16T06:28:49.873Z,12.60
2022-10-16T06:31:18.155Z,12.60
2022-10-16T06:33:46.719Z,12.60
2022-10-16T06:36:16.037Z,12.70
2022-10-16T06:38:43.262Z,12.60
2022-10-16T06:41:13.925Z,12.60
2022-10-16T06:43:40.666Z,12.60
2022-10-16T06:46:10.252Z,12.70
2022-10-16T06:48:37.747Z,12.80
2022-10-16T06:54:01.047Z,12.90
2022-10-16T06:56:28.745Z,13.00
2022-10-16T06:58:55.813Z,13.00
2022-10-16T07:01:24.457Z,13.00
2022-10-16T07:03:51.633Z,13.10
2022-10-16T07:06:22.809Z,13.10
2022-10-16T07:08:49.931Z,13.10
2022-10-16T07:11:19.204Z,13.10
2022-10-16T07:13:50.873Z,13.20
2022-10-16T07:16:23.241Z,13.20
2022-10-16T07:18:50.370Z,13.30
2022-10-16T07:21:21.723Z,13.30
2022-10-16T07:23:52.359Z,13.40
2022-10-16T07:26:19.651Z,13.50
2022-10-16T07:28:46.565Z,13.50
2022-10-16T07:31:15.223Z,13.60
2022-10-16T07:33:45.281Z,13.70
2022-10-16T07:36:16.218Z,13.80
2022-10-16T07:38:43.443Z,13.90
2022-10-16T07:41:13.001Z,14.00
2022-10-16T07:43:40.126Z,14.20
2022-10-16T07:46:07.764Z,14.40
2022-10-16T07:48:36.019Z,14.50
2022-10-16T07:51:05.262Z,14.70
2022-10-16T07:53:33.394Z,15.10
2022-10-16T07:56:02.024Z,15.50
2022-10-16T07:58:29.429Z,15.90
2022-10-16T08:00:57.157Z,16.30
2022-10-16T08:03:27.507Z,16.60
2022-10-16T08:05:54.486Z,17.10
2022-10-16T08:08:22.090Z,17.50
2022-10-16T08:10:48.837Z,17.80
2022-10-16T08:13:16.392Z,18.00
2022-10-16T08:15:46.808Z,18.20
2022-10-16T08:18:15.744Z,18.20
2022-10-16T08:20:43.765Z,18.20
2022-10-16T08:23:13.222Z,18.30
2022-10-16T08:25:41.802Z,18.40
2022-10-16T08:28:11.075Z,18.60
2022-10-16T08:30:38.113Z,18.80
2022-10-16T08:33:04.988Z,19.10
2022-10-16T08:35:31.779Z,19.20
2022-10-16T08:37:58.479Z,19.40
2022-10-16T08:40:33.788Z,19.50
2022-10-16T08:43:18.611Z,19.60
2022-10-16T08:46:05.951Z,19.80
2022-10-16T08:48:48.383Z,20.00
2022-10-16T08:51:21.050Z,20.30
2022-10-16T08:54:23.971Z,20.40
2022-10-16T08:56:50.739Z,20.40
2022-10-16T08:59:18.853Z,20.50
2022-10-16T09:01:48.329Z,20.20
2022-10-16T09:04:40.033Z,20.30
2022-10-16T09:07:40.081Z,20.50
2022-10-16T09:10:48.235Z,20.80
2022-10-16T09:13:14.841Z,21.10
2022-10-16T09:15:54.441Z,21.20
2022-10-16T09:18:32.665Z,21.20
2022-10-16T09:21:17.891Z,21.30
2022-10-16T09:23:44.982Z,21.50
2022-10-16T09:26:15.022Z,21.60
2022-10-16T09:28:42.377Z,21.60
2022-10-16T09:31:21.066Z,21.70
2022-10-16T09:33:55.786Z,21.80
2022-10-16T09:36:24.688Z,22.00
2022-10-16T09:38:51.446Z,21.70
2022-10-16T09:41:21.199Z,21.70
2022-10-16T09:43:55.056Z,21.90
2022-10-16T09:46:37.609Z,22.00
2022-10-16T09:49:24.441Z,21.90
2022-10-16T09:51:52.057Z,22.00
2022-10-16T09:54:21.489Z,22.00
2022-10-16T09:56:52.796Z,22.20
2022-10-16T09:59:21.627Z,22.40
2022-10-16T10:01:53.678Z,22.20
2022-10-16T10:04:21.924Z,22.10
2022-10-16T10:06:56.360Z,22.20
2022-10-16T10:09:31.847Z,22.30
2022-10-16T10:11:59.187Z,22.40
2022-10-16T10:14:31.701Z,22.60
2022-10-16T10:17:07.352Z,22.80
2022-10-16T10:19:45.615Z,22.70
2022-10-16T10:22:20.648Z,22.70
2022-10-16T10:25:22.198Z,22.80
2022-10-16T10:28:06.794Z,22.90
2022-10-16T10:31:14.404Z,23.10
2022-10-16T10:34:16.580Z,23.20
2022-10-16T10:36:50.971Z,23.40
2022-10-16T10:39:36.928Z,23.50
2022-10-16T10:42:13.170Z,23.50
2022-10-16T10:44:53.540Z,23.70
2022-10-16T10:47:38.193Z,23.80
2022-10-16T10:50:49.293Z,23.80
2022-10-16T10:53:37.673Z,23.60
2022-10-16T10:56:37.222Z,23.70
2022-10-16T10:59:22.783Z,23.70
2022-10-16T11:01:49.530Z,24.10
2022-10-16T11:04:40.314Z,24.30
2022-10-16T11:07:16.368Z,24.30
2022-10-16T11:09:52.084Z,24.50
2022-10-16T11:12:32.715Z,24.80
2022-10-16T11:15:20.709Z,24.90
2022-10-16T11:18:14.406Z,25.20
2022-10-16T11:21:13.497Z,25.20
2022-10-16T11:24:02.793Z,25.30
2022-10-16T11:26:36.962Z,25.40
2022-10-16T11:29:06.073Z,25.80
2022-10-16T11:31:53.624Z,26.10
2022-10-16T11:34:46.089Z,26.00
2022-10-16T11:37:18.263Z,26.20
2022-10-16T11:39:45.837Z,26.20
2022-10-16T11:42:37.896Z,26.20
2022-10-16T11:45:08.220Z,26.10
2022-10-16T11:48:00.558Z,26.10
2022-10-16T11:51:06.602Z,26.10
2022-10-16T11:54:15.366Z,26.10
2022-10-16T11:56:44.901Z,26.10
2022-10-16T11:59:22.451Z,26.20
2022-10-16T12:02:08.416Z,26.20
2022-10-16T12:04:49.276Z,26.30
2022-10-16T12:07:28.571Z,26.70
2022-10-16T12:09:57.153Z,26.70
2022-10-16T12:12:37.136Z,26.90
2022-10-16T12:15:54.058Z,27.00
2022-10-16T12:18:23.613Z,26.90
2022-10-16T12:21:06.246Z,26.70
2022-10-16T12:23:47.775Z,26.60
2022-10-16T12:26:14.531Z,26.60
2022-10-16T12:28:41.677Z,26.50
2022-10-16T12:31:11.027Z,26.40
2022-10-16T12:33:41.176Z,26.50
2022-10-16T12:36:17.051Z,26.50
2022-10-16T12:38:47.813Z,26.20
2022-10-16T12:41:35.846Z,26.60
2022-10-16T12:44:03.500Z,26.70
2022-10-16T12:46:30.121Z,26.90
2022-10-16T12:49:28.901Z,27.10
2022-10-16T12:51:56.291Z,27.40
2022-10-16T12:54:46.680Z,27.60
2022-10-16T12:57:22.145Z,27.60
2022-10-16T12:59:51.604Z,27.10
2022-10-16T13:02:37.414Z,26.90
2022-10-16T13:05:13.419Z,27.20
2022-10-16T13:07:46.070Z,27.00
2022-10-16T13:10:25.164Z,27.00
2022-10-16T13:13:14.541Z,27.10
2022-10-16T13:15:56.573Z,27.10
2022-10-16T13:19:00.830Z,27.00
2022-10-16T13:21:52.681Z,27.00
2022-10-16T13:24:47.962Z,27.10
2022-10-16T13:27:27.381Z,27.20
2022-10-16T13:30:01.284Z,27.10
2022-10-16T13:32:28.682Z,27.00
2022-10-16T13:34:56.607Z,27.20
2022-10-16T13:37:28.662Z,27.30
2022-10-16T13:40:21.461Z,27.60
2022-10-16T13:42:49.290Z,27.60
2022-10-16T13:45:24.987Z,27.60
2022-10-16T13:48:02.070Z,27.70
2022-10-16T13:50:28.746Z,27.80
2022-10-16T13:53:13.031Z,27.70
2022-10-16T13:55:39.884Z,27.60
2022-10-16T13:58:14.227Z,27.60
2022-10-16T14:00:52.941Z,27.50
2022-10-16T14:03:21.309Z,27.60
2022-10-16T14:05:57.593Z,27.50
2022-10-16T14:08:26.411Z,27.20
2022-10-16T14:10:57.233Z,27.30
2022-10-16T14:13:37.089Z,27.40
2022-10-16T14:16:09.863Z,27.20
2022-10-16T14:18:39.756Z,27.20
2022-10-16T14:21:16.021Z,27.10
2022-10-16T14:23:43.937Z,27.00
2022-10-16T14:26:10.539Z,26.90
2022-10-16T14:28:38.916Z,26.90
2022-10-16T14:31:26.180Z,26.70
2022-10-16T14:33:52.997Z,26.30
2022-10-16T14:36:21.640Z,26.10
2022-10-16T14:39:01.519Z,26.10
2022-10-16T14:41:29.663Z,26.10
2022-10-16T14:43:59.459Z,26.10
2022-10-16T14:46:34.368Z,26.00
2022-10-16T14:49:12.120Z,25.90
2022-10-16T14:51:43.097Z,25.90
2022-10-16T14:54:10.577Z,26.00
2022-10-16T14:56:56.478Z,26.00
2022-10-16T14:59:38.434Z,25.90
2022-10-16T15:02:29.163Z,25.70
2022-10-16T15:04:56.765Z,25.50
2022-10-16T15:07:24.272Z,25.20
2022-10-16T15:09:51.566Z,24.80
2022-10-16T15:12:18.332Z,24.40
2022-10-16T15:14:45.102Z,24.10
2022-10-16T15:17:12.609Z,23.80
2022-10-16T15:19:39.500Z,23.50
2022-10-16T15:22:06.332Z,23.20
2022-10-16T15:24:33.006Z,23.00
2022-10-16T15:26:59.744Z,22.80
2022-10-16T15:29:26.412Z,22.60
2022-10-16T15:31:53.139Z,22.50
2022-10-16T15:34:20.639Z,22.30
2022-10-16T15:36:47.389Z,22.20
2022-10-16T15:39:19.902Z,22.00
2022-10-16T15:41:51.877Z,21.90
2022-10-16T15:44:19.135Z,21.80
2022-10-16T15:46:46.295Z,21.70
2022-10-16T15:49:13.367Z,21.50
2022-10-16T15:51:42.122Z,21.50
2022-10-16T15:54:09.506Z,21.40
2022-10-16T15:56:37.846Z,21.30
2022-10-16T15:59:05.000Z,21.20
2022-10-16T16:01:36.273Z,21.10
2022-10-16T16:04:11.105Z,21.00
2022-10-16T16:06:45.608Z,20.90
2022-10-16T16:09:13.334Z,20.90
2022-10-16T16:11:40.239Z,20.70
2022-10-16T16:14:08.168Z,20.70
2022-10-16T16:16:38.407Z,20.60
2022-10-16T16:19:10.612Z,20.50
2022-10-16T16:21:38.741Z,20.50
2022-10-16T16:24:08.881Z,20.40
2022-10-16T16:26:38.313Z,20.20
2022-10-16T16:29:05.410Z,20.10
2022-10-16T16:31:33.375Z,20.00
2022-10-16T16:34:00.099Z,19.90
2022-10-16T16:36:26.778Z,19.70
2022-10-16T16:38:53.536Z,19.70
2022-10-16T16:41:22.687Z,19.60
2022-10-16T16:43:49.434Z,19.50
2022-10-16T16:46:16.387Z,19.40
2022-10-16T16:48:43.113Z,19.30
2022-10-16T16:51:16.961Z,19.30
2022-10-16T16:53:45.314Z,19.20
2022-10-16T16:56:12.646Z,19.10
2022-10-16T16:58:39.942Z,19.10
2022-10-16T17:01:22.476Z,19.00
2022-10-16T17:03:52.774Z,18.90
2022-10-16T17:06:22.491Z,18.90
2022-10-16T17:08:50.348Z,18.90
2022-10-16T17:11:19.780Z,18.80
2022-10-16T17:13:48.975Z,18.80
2022-10-16T17:16:18.039Z,18.70
2022-10-16T17:18:44.690Z,18.70
2022-10-16T17:21:11.593Z,18.60
2022-10-16T17:23:38.965Z,18.60
2022-10-16T17:26:12.089Z,18.50
2022-10-16T17:28:39.439Z,18.50
2022-10-16T17:31:18.496Z,18.40
2022-10-16T17:33:45.852Z,18.30
2022-10-16T17:36:14.793Z,18.20
2022-10-16T17:38:42.259Z,18.10
2022-10-16T17:41:19.010Z,18.10
2022-10-16T17:43:46.430Z,18.00
2022-10-16T17:46:14.659Z,17.90
2022-10-16T17:48:43.367Z,17.90
2022-10-16T17:51:12.157Z,17.80
2022-10-16T17:53:39.816Z,17.80
2022-10-16T17:56:09.453Z,17.60
2022-10-16T17:58:36.558Z,17.60
2022-10-16T18:01:15.423Z,17.60
2022-10-16T18:03:42.180Z,17.60
2022-10-16T18:06:08.859Z,17.50
2022-10-16T18:08:36.730Z,17.50
2022-10-16T18:11:04.717Z,17.40
2022-10-16T18:13:32.095Z,17.40
2022-10-16T18:16:09.756Z,17.40
2022-10-16T18:18:40.690Z,17.40
2022-10-16T18:21:11.147Z,17.50
2022-10-16T18:23:38.957Z,17.50
2022-10-16T18:26:07.218Z,17.40
2022-10-16T18:28:34.557Z,17.30
2022-10-16T18:31:12.318Z,17.30
2022-10-16T18:33:40.296Z,17.30
2022-10-16T18:36:09.523Z,17.30
2022-10-16T18:38:37.373Z,17.30
2022-10-16T18:41:07.593Z,17.30
2022-10-16T18:43:35.850Z,17.30
2022-10-16T18:46:05.684Z,17.20
2022-10-16T18:48:32.807Z,17.20
2022-10-16T18:51:26.207Z,17.20
2022-10-16T18:53:56.244Z,17.20
2022-10-16T18:56:24.371Z,17.20
2022-10-16T18:58:53.498Z,17.10
2022-10-16T19:01:22.898Z,17.10
2022-10-16T19:03:54.162Z,17.00
2022-10-16T19:06:21.355Z,17.00
2022-10-16T19:08:48.123Z,17.00
2022-10-16T19:11:17.014Z,17.00
2022-10-16T19:13:45.109Z,17.00
2022-10-16T19:16:21.645Z,16.90
2022-10-16T19:18:51.545Z,16.90
2022-10-16T19:21:18.991Z,16.90
2022-10-16T19:23:46.483Z,16.90
2022-10-16T19:26:17.628Z,16.80
2022-10-16T19:28:45.567Z,16.80
2022-10-16T19:31:18.663Z,16.80
2022-10-16T19:33:45.839Z,16.80
2022-10-16T19:36:23.615Z,16.80
2022-10-16T19:38:55.261Z,16.70
2022-10-16T19:41:23.688Z,16.70
2022-10-16T19:43:50.898Z,16.70
2022-10-16T19:46:20.819Z,16.70
2022-10-16T19:48:48.470Z,16.60
2022-10-16T19:51:18.843Z,16.60
2022-10-16T19:53:47.096Z,16.50
2022-10-16T19:56:19.160Z,16.50
2022-10-16T19:58:46.453Z,16.50
2022-10-16T20:01:15.400Z,16.40
2022-10-16T20:03:47.511Z,16.40
2022-10-16T20:06:15.501Z,16.40
2022-10-16T20:08:44.481Z,16.30
2022-10-16T20:11:17.203Z,16.30
2022-10-16T20:13:43.998Z,16.20
2022-10-16T20:16:12.785Z,16.20
2022-10-16T20:18:40.941Z,16.20
2022-10-16T20:21:12.520Z,16.10
2022-10-16T20:23:39.599Z,16.10
2022-10-16T20:26:06.956Z,16.10
2022-10-16T20:28:33.971Z,16.10
2022-10-16T20:31:07.835Z,16.00
2022-10-16T20:33:34.649Z,16.00
2022-10-16T20:36:01.378Z,15.90
2022-10-16T20:38:28.206Z,15.90
2022-10-16T20:40:54.914Z,15.90
2022-10-16T20:43:21.691Z,15.90
2022-10-16T20:45:59.781Z,15.80
2022-10-16T20:48:26.643Z,15.80
2022-10-16T20:50:53.360Z,15.70
2022-10-16T20:53:20.207Z,15.60
2022-10-16T20:55:46.986Z,15.50
2022-10-16T20:58:13.798Z,15.50
2022-10-16T21:00:40.491Z,15.50
2022-10-16T21:03:07.226Z,15.50
2022-10-16T21:05:34.523Z,15.50
2022-10-16T21:08:01.387Z,15.50
2022-10-16T21:10:30.014Z,15.40
2022-10-16T21:12:57.212Z,15.40
2022-10-16T21:15:23.991Z,15.40
2022-10-16T21:17:50.697Z,15.40
2022-10-16T21:20:17.608Z,15.40
2022-10-16T21:22:44.606Z,15.40
2022-10-16T21:25:11.481Z,15.40
2022-10-16T21:27:39.509Z,15.40
2022-10-16T21:30:07.915Z,15.40
2022-10-16T21:32:38.668Z,15.30
2022-10-16T21:35:06.582Z,15.30
2022-10-16T21:37:34.088Z,15.30
2022-10-16T21:40:00.891Z,15.20
2022-10-16T21:42:28.010Z,15.20
2022-10-16T21:44:54.990Z,15.10
2022-10-16T21:47:21.721Z,15.10
2022-10-16T21:49:48.722Z,15.10
2022-10-16T21:52:16.102Z,15.10
2022-10-16T21:54:42.810Z,15.00
2022-10-16T21:57:09.507Z,15.00
2022-10-16T21:59:36.186Z,15.00
2022-10-16T22:02:03.254Z,14.90
2022-10-16T22:04:30.072Z,14.80
2022-10-16T22:06:56.786Z,14.70
2022-10-16T22:09:23.537Z,14.50
2022-10-16T22:11:50.888Z,14.50
2022-10-16T22:14:19.997Z,14.50
2022-10-16T22:16:47.805Z,14.40
2022-10-16T22:19:17.101Z,14.40
2022-10-16T22:21:46.015Z,14.40
2022-10-16T22:24:13.844Z,14.30
2022-10-16T22:26:40.586Z,14.20
2022-10-16T22:29:08.449Z,14.20
2022-10-16T22:31:35.571Z,14.10
2022-10-16T22:34:03.620Z,14.00
2022-10-16T22:36:30.929Z,14.00
2022-10-16T22:38:58.275Z,14.00
2022-10-16T22:41:25.599Z,14.10
2022-10-16T22:43:52.663Z,14.10
2022-10-16T22:46:30.689Z,14.10
2022-10-16T22:48:58.331Z,14.10
2022-10-16T22:51:26.861Z,14.20
2022-10-16T22:53:53.572Z,14.20
2022-10-16T22:56:21.532Z,14.30
2022-10-16T22:58:48.364Z,14.30
2022-10-16T23:01:21.440Z,14.30
2022-10-16T23:03:48.141Z,14.30
2022-10-16T23:06:15.109Z,14.40
2022-10-16T23:08:41.837Z,14.40
2022-10-16T23:11:11.306Z,14.30
2022-10-16T23:13:40.032Z,14.20
2022-10-16T23:16:07.697Z,14.20
2022-10-16T23:18:34.712Z,14.20
2022-10-16T23:21:09.030Z,14.20
2022-10-16T23:23:36.756Z,14.10
2022-10-16T23:26:08.213Z,14.10
2022-10-16T23:28:34.906Z,14.10
2022-10-16T23:31:05.313Z,14.20
2022-10-16T23:33:33.898Z,14.20
2022-10-16T23:36:03.507Z,14.20
2022-10-16T23:38:30.156Z,14.30
2022-10-16T23:40:56.800Z,14.30
2022-10-16T23:43:23.594Z,14.30
2022-10-16T23:45:50.245Z,14.20
2022-10-16T23:48:16.888Z,14.10
2022-10-16T23:50:43.546Z,14.10
2022-10-16T23:53:10.375Z,14.10
2022-10-16T23:55:37.170Z,14.10
2022-10-16T23:58:04.116Z,14.00
